sensor_id;sensor_type;location;lat;lon;timestamp;pressure;altitude;pressure_sealevel;temperature;humidity
43745;BME280;29359;53.048;8.732;2023-02-23T00:01:29;101283.53;;;6.69;98.22
43745;BME280;29359;53.048;8.732;2023-02-23T00:03:30;101283.53;;;6.69;98.65
43745;BME280;29359;53.048;8.732;2023-02-23T00:05:35;101286.16;;;6.70;98.28
43745;BME280;29359;53.048;8.732;2023-02-23T00:07:36;101291.41;;;6.69;98.60
43745;BME280;29359;53.048;8.732;2023-02-23T00:09:38;101283.53;;;6.70;98.34
43745;BME280;29359;53.048;8.732;2023-02-23T00:11:40;101285.28;;;6.71;98.26
43745;BME280;29359;53.048;8.732;2023-02-23T00:13:43;101290.53;;;6.71;98.29
43745;BME280;29359;53.048;8.732;2023-02-23T00:15:46;101286.16;;;6.72;98.38
43745;BME280;29359;53.048;8.732;2023-02-23T00:17:47;101285.25;;;6.73;98.23
43745;BME280;29359;53.048;8.732;2023-02-23T00:19:49;101276.53;;;6.72;98.11
43745;BME280;29359;53.048;8.732;2023-02-23T00:21:52;101280.00;;;6.73;97.79
43745;BME280;29359;53.048;8.732;2023-02-23T00:23:56;101273.91;;;6.72;97.63
43745;BME280;29359;53.048;8.732;2023-02-23T00:25:58;101274.78;;;6.73;97.72
43745;BME280;29359;53.048;8.732;2023-02-23T00:27:59;101278.28;;;6.70;98.40
43745;BME280;29359;53.048;8.732;2023-02-23T00:30:01;101280.91;;;6.69;98.68
43745;BME280;29359;53.048;8.732;2023-02-23T00:32:03;101284.41;;;6.68;98.88
43745;BME280;29359;53.048;8.732;2023-02-23T00:34:05;101276.56;;;6.66;99.33
43745;BME280;29359;53.048;8.732;2023-02-23T00:36:13;101281.81;;;6.65;99.37
43745;BME280;29359;53.048;8.732;2023-02-23T00:38:14;101287.94;;;6.62;100.00
43745;BME280;29359;53.048;8.732;2023-02-23T00:40:17;101281.81;;;6.63;100.00
43745;BME280;29359;53.048;8.732;2023-02-23T00:42:20;101281.81;;;6.65;100.00
43745;BME280;29359;53.048;8.732;2023-02-23T00:44:23;101280.94;;;6.66;100.00
43745;BME280;29359;53.048;8.732;2023-02-23T00:46:28;101287.06;;;6.63;100.00
43745;BME280;29359;53.048;8.732;2023-02-23T00:48:31;101285.34;;;6.60;100.00
43745;BME280;29359;53.048;8.732;2023-02-23T00:50:33;101290.59;;;6.59;99.86
43745;BME280;29359;53.048;8.732;2023-02-23T00:52:35;101296.72;;;6.58;99.83
43745;BME280;29359;53.048;8.732;2023-02-23T00:54:36;101301.09;;;6.54;100.00
43745;BME280;29359;53.048;8.732;2023-02-23T00:56:38;101299.34;;;6.55;100.00
43745;BME280;29359;53.048;8.732;2023-02-23T00:58:41;101294.97;;;6.54;100.00
43745;BME280;29359;53.048;8.732;2023-02-23T01:00:42;101300.25;;;6.52;99.77
43745;BME280;29359;53.048;8.732;2023-02-23T01:02:47;101303.75;;;6.51;99.94
43745;BME280;29359;53.048;8.732;2023-02-23T01:04:49;101293.25;;;6.53;100.00
43745;BME280;29359;53.048;8.732;2023-02-23T01:06:51;101293.22;;;6.59;100.00
43745;BME280;29359;53.048;8.732;2023-02-23T01:08:52;101301.06;;;6.62;100.00
43745;BME280;29359;53.048;8.732;2023-02-23T01:10:57;101304.56;;;6.61;100.00
43745;BME280;29359;53.048;8.732;2023-02-23T01:12:58;101301.94;;;6.63;100.00
43745;BME280;29359;53.048;8.732;2023-02-23T01:15:00;101308.03;;;6.66;100.00
43745;BME280;29359;53.048;8.732;2023-02-23T01:17:03;101303.66;;;6.70;100.00
43745;BME280;29359;53.048;8.732;2023-02-23T01:19:05;101305.38;;;6.72;100.00
43745;BME280;29359;53.048;8.732;2023-02-23T01:21:19;101298.38;;;6.76;100.00
43745;BME280;29359;53.048;8.732;2023-02-23T01:23:21;101300.13;;;6.75;100.00
43745;BME280;29359;53.048;8.732;2023-02-23T01:25:23;101300.09;;;6.77;100.00
43745;BME280;29359;53.048;8.732;2023-02-23T01:27:24;101300.97;;;6.77;100.00
43745;BME280;29359;53.048;8.732;2023-02-23T01:29:26;101300.97;;;6.79;100.00
43745;BME280;29359;53.048;8.732;2023-02-23T01:31:28;101306.22;;;6.79;100.00
43745;BME280;29359;53.048;8.732;2023-02-23T01:33:30;101293.97;;;6.81;100.00
43745;BME280;29359;53.048;8.732;2023-02-23T01:35:32;101296.56;;;6.82;100.00
43745;BME280;29359;53.048;8.732;2023-02-23T01:37:35;101299.19;;;6.84;100.00
43745;BME280;29359;53.048;8.732;2023-02-23T01:39:36;101295.69;;;6.85;100.00
43745;BME280;29359;53.048;8.732;2023-02-23T01:41:38;101299.19;;;6.87;100.00
43745;BME280;29359;53.048;8.732;2023-02-23T01:46:13;101300.91;;;6.88;100.00
43745;BME280;29359;53.048;8.732;2023-02-23T01:48:21;101298.28;;;6.89;100.00
43745;BME280;29359;53.048;8.732;2023-02-23T01:50:25;101294.78;;;6.89;100.00
43745;BME280;29359;53.048;8.732;2023-02-23T01:52:27;101296.53;;;6.90;100.00
43745;BME280;29359;53.048;8.732;2023-02-23T01:54:31;101299.16;;;6.91;100.00
43745;BME280;29359;53.048;8.732;2023-02-23T01:56:38;101291.25;;;6.93;100.00
43745;BME280;29359;53.048;8.732;2023-02-23T01:58:45;101293.88;;;6.93;100.00
43745;BME280;29359;53.048;8.732;2023-02-23T02:00:57;101292.16;;;6.95;100.00
43745;BME280;29359;53.048;8.732;2023-02-23T02:03:00;101294.78;;;6.95;100.00
43745;BME280;29359;53.048;8.732;2023-02-23T02:05:03;101291.28;;;6.96;100.00
43745;BME280;29359;53.048;8.732;2023-02-23T02:07:13;101294.75;;;7.00;100.00
43745;BME280;29359;53.048;8.732;2023-02-23T02:09:16;101294.75;;;7.00;100.00
43745;BME280;29359;53.048;8.732;2023-02-23T02:11:18;101298.25;;;7.02;100.00
43745;BME280;29359;53.048;8.732;2023-02-23T02:13:36;101298.22;;;7.03;100.00
43745;BME280;29359;53.048;8.732;2023-02-23T02:15:56;101298.22;;;7.05;100.00
43745;BME280;29359;53.048;8.732;2023-02-23T02:22:53;101292.06;;;7.07;100.00
43745;BME280;29359;53.048;8.732;2023-02-23T02:25:23;101292.94;;;7.09;100.00
43745;BME280;29359;53.048;8.732;2023-02-23T02:35:27;101296.44;;;7.08;100.00
43745;BME280;29359;53.048;8.732;2023-02-23T02:37:40;101295.56;;;7.09;100.00
43745;BME280;29359;53.048;8.732;2023-02-23T02:40:13;101291.16;;;7.13;100.00
43745;BME280;29359;53.048;8.732;2023-02-23T02:42:40;101298.16;;;7.15;100.00
43745;BME280;29359;53.048;8.732;2023-02-23T02:47:11;101284.13;;;7.16;100.00
43745;BME280;29359;53.048;8.732;2023-02-23T02:49:22;101289.34;;;7.19;100.00
43745;BME280;29359;53.048;8.732;2023-02-23T02:53:58;101275.34;;;7.20;100.00
43745;BME280;29359;53.048;8.732;2023-02-23T02:56:07;101285.84;;;7.22;100.00
43745;BME280;29359;53.048;8.732;2023-02-23T02:58:11;101284.06;;;7.24;100.00
43745;BME280;29359;53.048;8.732;2023-02-23T03:00:17;101285.81;;;7.25;100.00
43745;BME280;29359;53.048;8.732;2023-02-23T03:02:39;101279.69;;;7.24;100.00
43745;BME280;29359;53.048;8.732;2023-02-23T03:05:00;101279.69;;;7.24;100.00
43745;BME280;29359;53.048;8.732;2023-02-23T03:08:02;101283.19;;;7.27;100.00
43745;BME280;29359;53.048;8.732;2023-02-23T03:10:19;101284.91;;;7.28;100.00
43745;BME280;29359;53.048;8.732;2023-02-23T03:23:07;101290.19;;;7.24;100.00
43745;BME280;29359;53.048;8.732;2023-02-23T03:25:39;101292.81;;;7.26;100.00
43745;BME280;29359;53.048;8.732;2023-02-23T03:36:10;101302.41;;;7.29;100.00
43745;BME280;29359;53.048;8.732;2023-02-23T03:39:03;101293.69;;;7.27;100.00
43745;BME280;29359;53.048;8.732;2023-02-23T03:41:30;101293.69;;;7.25;100.00
43745;BME280;29359;53.048;8.732;2023-02-23T03:43:57;101299.81;;;7.24;100.00
43745;BME280;29359;53.048;8.732;2023-02-23T03:46:19;101297.19;;;7.25;100.00
43745;BME280;29359;53.048;8.732;2023-02-23T03:48:42;101296.31;;;7.25;100.00
43745;BME280;29359;53.048;8.732;2023-02-23T03:51:06;101291.06;;;7.25;100.00
43745;BME280;29359;53.048;8.732;2023-02-23T03:53:33;101297.19;;;7.25;100.00
43745;BME280;29359;53.048;8.732;2023-02-23T03:55:55;101298.06;;;7.26;100.00
43745;BME280;29359;53.048;8.732;2023-02-23T03:58:26;101301.56;;;7.27;100.00
43745;BME280;29359;53.048;8.732;2023-02-23T04:00:50;101300.69;;;7.28;100.00
43745;BME280;29359;53.048;8.732;2023-02-23T04:03:15;101299.81;;;7.27;100.00
43745;BME280;29359;53.048;8.732;2023-02-23T04:05:38;101302.44;;;7.27;100.00
43745;BME280;29359;53.048;8.732;2023-02-23T04:08:02;101301.53;;;7.28;100.00
43745;BME280;29359;53.048;8.732;2023-02-23T04:10:25;101312.94;;;7.27;100.00
43745;BME280;29359;53.048;8.732;2023-02-23T04:13:08;101305.94;;;7.28;100.00
43745;BME280;29359;53.048;8.732;2023-02-23T04:15:26;101306.81;;;7.27;100.00
43745;BME280;29359;53.048;8.732;2023-02-23T04:17:30;101301.56;;;7.25;100.00
43745;BME280;29359;53.048;8.732;2023-02-23T04:19:32;101312.94;;;7.25;100.00
43745;BME280;29359;53.048;8.732;2023-02-23T04:21:33;101312.06;;;7.25;100.00
43745;BME280;29359;53.048;8.732;2023-02-23T04:23:36;101320.81;;;7.25;100.00
43745;BME280;29359;53.048;8.732;2023-02-23T04:25:42;101312.06;;;7.25;100.00
43745;BME280;29359;53.048;8.732;2023-02-23T04:27:43;101310.34;;;7.24;100.00
43745;BME280;29359;53.048;8.732;2023-02-23T04:29:45;101315.59;;;7.22;100.00
43745;BME280;29359;53.048;8.732;2023-02-23T04:31:46;101318.22;;;7.22;100.00
43745;BME280;29359;53.048;8.732;2023-02-23T04:33:49;101322.59;;;7.23;100.00
43745;BME280;29359;53.048;8.732;2023-02-23T04:35:52;101326.09;;;7.24;100.00
43745;BME280;29359;53.048;8.732;2023-02-23T04:37:54;101324.34;;;7.23;100.00
43745;BME280;29359;53.048;8.732;2023-02-23T04:39:55;101324.34;;;7.23;100.00
43745;BME280;29359;53.048;8.732;2023-02-23T04:41:57;101316.47;;;7.24;100.00
43745;BME280;29359;53.048;8.732;2023-02-23T04:43:58;101319.97;;;7.23;100.00
43745;BME280;29359;53.048;8.732;2023-02-23T04:46:00;101321.72;;;7.23;100.00
43745;BME280;29359;53.048;8.732;2023-02-23T04:48:02;101324.34;;;7.23;100.00
43745;BME280;29359;53.048;8.732;2023-02-23T04:50:04;101323.47;;;7.22;100.00
43745;BME280;29359;53.048;8.732;2023-02-23T04:52:06;101327.84;;;7.22;100.00
43745;BME280;29359;53.048;8.732;2023-02-23T04:54:07;101324.34;;;7.21;100.00
43745;BME280;29359;53.048;8.732;2023-02-23T04:56:09;101322.63;;;7.20;100.00
43745;BME280;29359;53.048;8.732;2023-02-23T04:58:11;101321.75;;;7.20;100.00
43745;BME280;29359;53.048;8.732;2023-02-23T05:00:16;101326.13;;;7.19;100.00
43745;BME280;29359;53.048;8.732;2023-02-23T05:02:18;101323.50;;;7.19;100.00
43745;BME280;29359;53.048;8.732;2023-02-23T05:04:20;101324.38;;;7.20;100.00
43745;BME280;29359;53.048;8.732;2023-02-23T05:06:21;101320.88;;;7.19;100.00
43745;BME280;29359;53.048;8.732;2023-02-23T05:08:23;101320.88;;;7.18;100.00
43745;BME280;29359;53.048;8.732;2023-02-23T05:10:24;101318.25;;;7.18;100.00
43745;BME280;29359;53.048;8.732;2023-02-23T05:12:25;101325.25;;;7.17;100.00
43745;BME280;29359;53.048;8.732;2023-02-23T05:14:27;101330.50;;;7.19;100.00
43745;BME280;29359;53.048;8.732;2023-02-23T05:16:28;101326.13;;;7.19;100.00
43745;BME280;29359;53.048;8.732;2023-02-23T05:18:30;101327.00;;;7.18;100.00
43745;BME280;29359;53.048;8.732;2023-02-23T05:20:31;101322.63;;;7.19;100.00
43745;BME280;29359;53.048;8.732;2023-02-23T05:22:33;101324.38;;;7.18;100.00
43745;BME280;29359;53.048;8.732;2023-02-23T05:24:34;101324.38;;;7.18;100.00
43745;BME280;29359;53.048;8.732;2023-02-23T05:26:36;101324.38;;;7.20;100.00
43745;BME280;29359;53.048;8.732;2023-02-23T05:28:39;101325.25;;;7.20;100.00
43745;BME280;29359;53.048;8.732;2023-02-23T05:30:41;101329.63;;;7.18;100.00
43745;BME280;29359;53.048;8.732;2023-02-23T05:32:43;101329.63;;;7.18;100.00
43745;BME280;29359;53.048;8.732;2023-02-23T05:34:45;101330.50;;;7.17;100.00
43745;BME280;29359;53.048;8.732;2023-02-23T05:36:46;101326.16;;;7.16;100.00
43745;BME280;29359;53.048;8.732;2023-02-23T05:38:48;101329.63;;;7.17;100.00
43745;BME280;29359;53.048;8.732;2023-02-23T05:40:49;101328.78;;;7.16;100.00
43745;BME280;29359;53.048;8.732;2023-02-23T05:42:51;101332.25;;;7.18;100.00
43745;BME280;29359;53.048;8.732;2023-02-23T05:44:52;101332.25;;;7.18;100.00
43745;BME280;29359;53.048;8.732;2023-02-23T05:46:54;101325.25;;;7.17;100.00
43745;BME280;29359;53.048;8.732;2023-02-23T05:48:57;101326.16;;;7.16;100.00
43745;BME280;29359;53.048;8.732;2023-02-23T05:51:10;101331.41;;;7.16;100.00
43745;BME280;29359;53.048;8.732;2023-02-23T05:53:12;101332.28;;;7.15;100.00
43745;BME280;29359;53.048;8.732;2023-02-23T05:55:13;101333.16;;;7.16;100.00
43745;BME280;29359;53.048;8.732;2023-02-23T05:57:15;101335.75;;;7.17;100.00
43745;BME280;29359;53.048;8.732;2023-02-23T05:59:16;101339.25;;;7.19;100.00
43745;BME280;29359;53.048;8.732;2023-02-23T06:01:19;101334.84;;;7.23;100.00
43745;BME280;29359;53.048;8.732;2023-02-23T06:03:21;101342.75;;;7.21;100.00
43745;BME280;29359;53.048;8.732;2023-02-23T06:05:23;101348.00;;;7.21;100.00
43745;BME280;29359;53.048;8.732;2023-02-23T06:07:25;101345.38;;;7.20;100.00
43745;BME280;29359;53.048;8.732;2023-02-23T06:09:26;101353.25;;;7.20;100.00
43745;BME280;29359;53.048;8.732;2023-02-23T06:11:28;101356.75;;;7.22;100.00
43745;BME280;29359;53.048;8.732;2023-02-23T06:13:31;101350.59;;;7.23;100.00
43745;BME280;29359;53.048;8.732;2023-02-23T06:15:32;101352.34;;;7.22;100.00
43745;BME280;29359;53.048;8.732;2023-02-23T06:17:35;101353.22;;;7.23;100.00
43745;BME280;29359;53.048;8.732;2023-02-23T06:19:36;101355.00;;;7.22;100.00
43745;BME280;29359;53.048;8.732;2023-02-23T06:21:38;101351.50;;;7.19;100.00
43745;BME280;29359;53.048;8.732;2023-02-23T06:23:39;101351.50;;;7.19;100.00
43745;BME280;29359;53.048;8.732;2023-02-23T06:25:42;101357.63;;;7.19;100.00
43745;BME280;29359;53.048;8.732;2023-02-23T06:27:44;101358.53;;;7.17;100.00
43745;BME280;29359;53.048;8.732;2023-02-23T06:29:45;101363.78;;;7.15;100.00
43745;BME280;29359;53.048;8.732;2023-02-23T06:31:47;101354.19;;;7.13;100.00
43745;BME280;29359;53.048;8.732;2023-02-23T06:33:48;101363.81;;;7.12;100.00
43745;BME280;29359;53.048;8.732;2023-02-23T06:35:51;101361.19;;;7.12;100.00
43745;BME280;29359;53.048;8.732;2023-02-23T06:37:53;101364.69;;;7.13;100.00
43745;BME280;29359;53.048;8.732;2023-02-23T06:39:54;101365.56;;;7.13;100.00
43745;BME280;29359;53.048;8.732;2023-02-23T06:41:56;101364.66;;;7.14;100.00
43745;BME280;29359;53.048;8.732;2023-02-23T06:43:57;101370.81;;;7.13;100.00
43745;BME280;29359;53.048;8.732;2023-02-23T06:45:58;101373.44;;;7.13;100.00
43745;BME280;29359;53.048;8.732;2023-02-23T06:48:00;101377.81;;;7.13;100.00
43745;BME280;29359;53.048;8.732;2023-02-23T06:50:02;101376.94;;;7.11;100.00
43745;BME280;29359;53.048;8.732;2023-02-23T06:52:04;101383.06;;;7.11;100.00
43745;BME280;29359;53.048;8.732;2023-02-23T06:54:05;101386.56;;;7.12;100.00
43745;BME280;29359;53.048;8.732;2023-02-23T06:56:07;101390.06;;;7.11;100.00
43745;BME280;29359;53.048;8.732;2023-02-23T06:58:08;101390.06;;;7.11;100.00
43745;BME280;29359;53.048;8.732;2023-02-23T07:00:11;101391.81;;;7.12;100.00
43745;BME280;29359;53.048;8.732;2023-02-23T07:02:15;101397.94;;;7.11;100.00
43745;BME280;29359;53.048;8.732;2023-02-23T07:04:17;101403.22;;;7.09;100.00
43745;BME280;29359;53.048;8.732;2023-02-23T07:06:19;101396.19;;;7.10;100.00
43745;BME280;29359;53.048;8.732;2023-02-23T07:08:20;101401.44;;;7.10;100.00
43745;BME280;29359;53.048;8.732;2023-02-23T07:10:22;101398.81;;;7.10;100.00
43745;BME280;29359;53.048;8.732;2023-02-23T07:12:23;101400.56;;;7.12;100.00
43745;BME280;29359;53.048;8.732;2023-02-23T07:14:25;101404.06;;;7.13;100.00
43745;BME280;29359;53.048;8.732;2023-02-23T07:16:28;101407.56;;;7.12;100.00
43745;BME280;29359;53.048;8.732;2023-02-23T07:18:30;101411.94;;;7.13;100.00
43745;BME280;29359;53.048;8.732;2023-02-23T07:20:32;101408.44;;;7.14;100.00
43745;BME280;29359;53.048;8.732;2023-02-23T07:22:34;101408.44;;;7.14;100.00
43745;BME280;29359;53.048;8.732;2023-02-23T07:24:35;101410.16;;;7.16;100.00
43745;BME280;29359;53.048;8.732;2023-02-23T07:26:38;101418.03;;;7.16;100.00
43745;BME280;29359;53.048;8.732;2023-02-23T07:28:43;101418.91;;;7.17;100.00
43745;BME280;29359;53.048;8.732;2023-02-23T07:30:45;101418.03;;;7.16;100.00
43745;BME280;29359;53.048;8.732;2023-02-23T07:32:47;101413.66;;;7.17;100.00
43745;BME280;29359;53.048;8.732;2023-02-23T07:34:48;101416.28;;;7.17;100.00
43745;BME280;29359;53.048;8.732;2023-02-23T07:36:51;101419.78;;;7.17;100.00
43745;BME280;29359;53.048;8.732;2023-02-23T07:38:53;101423.28;;;7.18;100.00
43745;BME280;29359;53.048;8.732;2023-02-23T07:40:55;101424.16;;;7.21;100.00
43745;BME280;29359;53.048;8.732;2023-02-23T07:42:56;101424.13;;;7.24;100.00
43745;BME280;29359;53.048;8.732;2023-02-23T07:44:58;101425.00;;;7.25;100.00
43745;BME280;29359;53.048;8.732;2023-02-23T07:47:00;101428.53;;;7.22;100.00
43745;BME280;29359;53.048;8.732;2023-02-23T07:49:02;101426.75;;;7.28;100.00
43745;BME280;29359;53.048;8.732;2023-02-23T07:51:08;101426.72;;;7.31;100.00
43745;BME280;29359;53.048;8.732;2023-02-23T07:53:10;101431.94;;;7.34;100.00
43745;BME280;29359;53.048;8.732;2023-02-23T07:55:12;101430.22;;;7.39;100.00
43745;BME280;29359;53.048;8.732;2023-02-23T07:57:13;101437.19;;;7.43;100.00
43745;BME280;29359;53.048;8.732;2023-02-23T07:59:15;101433.69;;;7.44;100.00
43745;BME280;29359;53.048;8.732;2023-02-23T08:01:17;101434.56;;;7.44;100.00
43745;BME280;29359;53.048;8.732;2023-02-23T08:03:19;101435.44;;;7.45;100.00
43745;BME280;29359;53.048;8.732;2023-02-23T08:05:21;101441.56;;;7.45;100.00
43745;BME280;29359;53.048;8.732;2023-02-23T08:07:24;101444.16;;;7.48;100.00
43745;BME280;29359;53.048;8.732;2023-02-23T08:09:26;101442.41;;;7.47;100.00
43745;BME280;29359;53.048;8.732;2023-02-23T08:11:27;101445.03;;;7.49;100.00
43745;BME280;29359;53.048;8.732;2023-02-23T08:13:31;101448.56;;;7.45;100.00
43745;BME280;29359;53.048;8.732;2023-02-23T08:15:32;101446.81;;;7.44;100.00
43745;BME280;29359;53.048;8.732;2023-02-23T08:17:35;101457.31;;;7.44;100.00
43745;BME280;29359;53.048;8.732;2023-02-23T08:19:37;101453.84;;;7.40;100.00
43745;BME280;29359;53.048;8.732;2023-02-23T08:21:38;101451.22;;;7.39;100.00
43745;BME280;29359;53.048;8.732;2023-02-23T08:23:40;101460.84;;;7.41;100.00
43745;BME280;29359;53.048;8.732;2023-02-23T08:25:41;101466.97;;;7.42;100.00
43745;BME280;29359;53.048;8.732;2023-02-23T08:27:43;101458.22;;;7.38;100.00
43745;BME280;29359;53.048;8.732;2023-02-23T08:29:44;101462.59;;;7.38;100.00
43745;BME280;29359;53.048;8.732;2023-02-23T08:31:46;101461.72;;;7.42;100.00
43745;BME280;29359;53.048;8.732;2023-02-23T08:33:48;101463.47;;;7.43;100.00
43745;BME280;29359;53.048;8.732;2023-02-23T08:35:49;101461.69;;;7.46;100.00
43745;BME280;29359;53.048;8.732;2023-02-23T08:37:53;101465.19;;;7.47;100.00
43745;BME280;29359;53.048;8.732;2023-02-23T08:39:57;101459.94;;;7.47;100.00
43745;BME280;29359;53.048;8.732;2023-02-23T08:42:01;101474.81;;;7.48;100.00
43745;BME280;29359;53.048;8.732;2023-02-23T08:44:03;101464.31;;;7.48;100.00
43745;BME280;29359;53.048;8.732;2023-02-23T08:46:05;101470.44;;;7.47;100.00
43745;BME280;29359;53.048;8.732;2023-02-23T08:48:07;101463.41;;;7.49;100.00
43745;BME280;29359;53.048;8.732;2023-02-23T08:50:09;101473.06;;;7.48;100.00
43745;BME280;29359;53.048;8.732;2023-02-23T08:52:11;101467.81;;;7.47;100.00
43745;BME280;29359;53.048;8.732;2023-02-23T08:54:13;101465.19;;;7.48;100.00
43745;BME280;29359;53.048;8.732;2023-02-23T08:56:16;101463.41;;;7.49;100.00
43745;BME280;29359;53.048;8.732;2023-02-23T08:58:17;101472.16;;;7.51;100.00
43745;BME280;29359;53.048;8.732;2023-02-23T09:00:19;101469.53;;;7.52;100.00
43745;BME280;29359;53.048;8.732;2023-02-23T09:02:21;101467.78;;;7.51;100.00
43745;BME280;29359;53.048;8.732;2023-02-23T09:04:24;101470.41;;;7.53;100.00
43745;BME280;29359;53.048;8.732;2023-02-23T09:06:26;101471.28;;;7.50;100.00
43745;BME280;29359;53.048;8.732;2023-02-23T09:08:28;101468.69;;;7.49;100.00
43745;BME280;29359;53.048;8.732;2023-02-23T09:10:29;101468.66;;;7.52;100.00
43745;BME280;29359;53.048;8.732;2023-02-23T09:12:32;101469.50;;;7.55;100.00
43745;BME280;29359;53.048;8.732;2023-02-23T09:14:33;101473.88;;;7.58;100.00
43745;BME280;29359;53.048;8.732;2023-02-23T09:16:36;101473.00;;;7.57;100.00
43745;BME280;29359;53.048;8.732;2023-02-23T09:18:37;101473.00;;;7.57;100.00
43745;BME280;29359;53.048;8.732;2023-02-23T09:20:41;101479.13;;;7.60;100.00
43745;BME280;29359;53.048;8.732;2023-02-23T09:22:43;101475.63;;;7.59;100.00
43745;BME280;29359;53.048;8.732;2023-02-23T09:24:48;101477.38;;;7.60;100.00
43745;BME280;29359;53.048;8.732;2023-02-23T09:26:50;101477.38;;;7.59;100.00
43745;BME280;29359;53.048;8.732;2023-02-23T09:28:54;101478.25;;;7.57;100.00
43745;BME280;29359;53.048;8.732;2023-02-23T09:30:56;101482.63;;;7.57;100.00
43745;BME280;29359;53.048;8.732;2023-02-23T09:32:57;101483.50;;;7.57;100.00
43745;BME280;29359;53.048;8.732;2023-02-23T09:34:59;101487.00;;;7.60;100.00
43745;BME280;29359;53.048;8.732;2023-02-23T09:37:01;101480.88;;;7.59;100.00
43745;BME280;29359;53.048;8.732;2023-02-23T09:39:03;101480.88;;;7.59;100.00
43745;BME280;29359;53.048;8.732;2023-02-23T09:41:25;101482.63;;;7.60;100.00
43745;BME280;29359;53.048;8.732;2023-02-23T09:46:07;101487.88;;;7.60;100.00
43745;BME280;29359;53.048;8.732;2023-02-23T09:48:17;101488.75;;;7.59;100.00
43745;BME280;29359;53.048;8.732;2023-02-23T09:50:22;101494.03;;;7.57;100.00
43745;BME280;29359;53.048;8.732;2023-02-23T09:52:35;101497.53;;;7.56;100.00
43745;BME280;29359;53.048;8.732;2023-02-23T09:54:39;101492.28;;;7.56;100.00
43745;BME280;29359;53.048;8.732;2023-02-23T09:56:45;101497.50;;;7.61;100.00
43745;BME280;29359;53.048;8.732;2023-02-23T09:58:47;101489.59;;;7.64;100.00
43745;BME280;29359;53.048;8.732;2023-02-23T10:03:27;101497.44;;;7.70;100.00
43745;BME280;29359;53.048;8.732;2023-02-23T10:05:32;101496.56;;;7.71;100.00
43745;BME280;29359;53.048;8.732;2023-02-23T10:07:55;101503.56;;;7.72;100.00
43745;BME280;29359;53.048;8.732;2023-02-23T10:12:41;101497.44;;;7.70;100.00
43745;BME280;29359;53.048;8.732;2023-02-23T10:19:54;101497.41;;;7.76;100.00
43745;BME280;29359;53.048;8.732;2023-02-23T10:22:04;101493.88;;;7.85;100.00
43745;BME280;29359;53.048;8.732;2023-02-23T10:24:31;101490.34;;;7.91;100.00
43745;BME280;29359;53.048;8.732;2023-02-23T10:26:55;101483.31;;;7.94;100.00
43745;BME280;29359;53.048;8.732;2023-02-23T10:28:59;101495.56;;;7.97;100.00
43745;BME280;29359;53.048;8.732;2023-02-23T10:31:02;101497.31;;;7.96;100.00
43745;BME280;29359;53.048;8.732;2023-02-23T10:33:35;101497.28;;;7.98;100.00
43745;BME280;29359;53.048;8.732;2023-02-23T10:35:38;101502.56;;;7.96;100.00
43745;BME280;29359;53.048;8.732;2023-02-23T10:37:40;101500.81;;;7.94;100.00
43745;BME280;29359;53.048;8.732;2023-02-23T10:39:41;101502.59;;;7.90;100.00
43745;BME280;29359;53.048;8.732;2023-02-23T10:41:43;101503.47;;;7.91;100.00
43745;BME280;29359;53.048;8.732;2023-02-23T10:43:46;101495.59;;;7.92;100.00
43745;BME280;29359;53.048;8.732;2023-02-23T10:45:50;101506.94;;;7.96;100.00
43745;BME280;29359;53.048;8.732;2023-02-23T10:47:57;101499.03;;;7.99;100.00
43745;BME280;29359;53.048;8.732;2023-02-23T10:49:59;101497.25;;;8.02;100.00
43745;BME280;29359;53.048;8.732;2023-02-23T10:52:01;101493.72;;;8.06;100.00
43745;BME280;29359;53.048;8.732;2023-02-23T10:54:39;101501.56;;;8.14;100.00
43745;BME280;29359;53.048;8.732;2023-02-23T10:56:44;101502.44;;;8.14;100.00
43745;BME280;29359;53.048;8.732;2023-02-23T10:58:50;101498.94;;;8.12;100.00
43745;BME280;29359;53.048;8.732;2023-02-23T11:01:00;101503.34;;;8.09;100.00
43745;BME280;29359;53.048;8.732;2023-02-23T11:03:16;101506.91;;;8.02;100.00
43745;BME280;29359;53.048;8.732;2023-02-23T11:07:33;101515.75;;;7.92;100.00
43745;BME280;29359;53.048;8.732;2023-02-23T11:09:35;101514.00;;;7.89;100.00
43745;BME280;29359;53.048;8.732;2023-02-23T11:14:15;101526.28;;;7.88;100.00
43745;BME280;29359;53.048;8.732;2023-02-23T11:16:25;101515.78;;;7.85;100.00
43745;BME280;29359;53.048;8.732;2023-02-23T11:18:29;101516.69;;;7.81;100.00
43745;BME280;29359;53.048;8.732;2023-02-23T11:20:37;101514.03;;;7.78;100.00
43745;BME280;29359;53.048;8.732;2023-02-23T11:22:40;101513.19;;;7.75;100.00
43745;BME280;29359;53.048;8.732;2023-02-23T11:24:42;101507.06;;;7.76;100.00
43745;BME280;29359;53.048;8.732;2023-02-23T11:26:45;101507.94;;;7.75;100.00
43745;BME280;29359;53.048;8.732;2023-02-23T11:28:51;101500.91;;;7.75;100.00
43745;BME280;29359;53.048;8.732;2023-02-23T11:30:54;101504.44;;;7.73;100.00
43745;BME280;29359;53.048;8.732;2023-02-23T11:32:58;101504.44;;;7.71;100.00
43745;BME280;29359;53.048;8.732;2023-02-23T11:39:21;101499.19;;;7.71;100.00
43745;BME280;29359;53.048;8.732;2023-02-23T11:41:23;101503.59;;;7.69;100.00
43745;BME280;29359;53.048;8.732;2023-02-23T11:43:25;101505.38;;;7.66;100.00
43745;BME280;29359;53.048;8.732;2023-02-23T11:45:29;101507.13;;;7.62;100.00
43745;BME280;29359;53.048;8.732;2023-02-23T11:47:38;101501.00;;;7.60;100.00
43745;BME280;29359;53.048;8.732;2023-02-23T11:49:43;101501.00;;;7.60;100.00
43745;BME280;29359;53.048;8.732;2023-02-23T11:51:48;101505.41;;;7.60;100.00
43745;BME280;29359;53.048;8.732;2023-02-23T11:53:51;101504.53;;;7.56;100.00
43745;BME280;29359;53.048;8.732;2023-02-23T11:55:54;101501.03;;;7.59;100.00
43745;BME280;29359;53.048;8.732;2023-02-23T11:58:24;101498.38;;;7.65;100.00